sensor_id;sensor_type;location;lat;lon;timestamp;pressure;altitude;pressure_sealevel;temperature;humidity
15308;BME280;7755;52.208;6.964;2024-01-30T00:01:06;102284.59;;;6.55;100.00
15308;BME280;7755;52.208;6.964;2024-01-30T00:05:12;102288.28;;;6.63;100.00
15308;BME280;7755;52.208;6.964;2024-01-30T00:09:16;102284.69;;;6.70;100.00
15308;BME280;7755;52.208;6.964;2024-01-30T00:13:21;102288.09;;;6.72;100.00
15308;BME280;7755;52.208;6.964;2024-01-30T00:17:29;102293.13;;;6.75;100.00
15308;BME280;7755;52.208;6.964;2024-01-30T00:21:34;102286.34;;;6.79;100.00
15308;BME280;7755;52.208;6.964;2024-01-30T00:25:39;102286.84;;;6.83;100.00
15308;BME280;7755;52.208;6.964;2024-01-30T00:29:44;102289.53;;;6.91;100.00
15308;BME280;7755;52.208;6.964;2024-01-30T00:33:54;102276.59;;;7.01;100.00
15308;BME280;7755;52.208;6.964;2024-01-30T00:37:59;102273.00;;;7.09;100.00
15308;BME280;7755;52.208;6.964;2024-01-30T00:42:04;102271.75;;;7.20;100.00
15308;BME280;7755;52.208;6.964;2024-01-30T00:46:09;102269.81;;;7.28;100.00
15308;BME280;7755;52.208;6.964;2024-01-30T00:50:17;102267.25;;;7.35;100.00
15308;BME280;7755;52.208;6.964;2024-01-30T00:54:23;102271.56;;;7.44;100.00
15308;BME280;7755;52.208;6.964;2024-01-30T00:58:28;102258.97;;;7.51;100.00
15308;BME280;7755;52.208;6.964;2024-01-30T01:02:33;102261.66;;;7.59;100.00
15308;BME280;7755;52.208;6.964;2024-01-30T01:06:41;102266.13;;;7.67;100.00
15308;BME280;7755;52.208;6.964;2024-01-30T01:10:46;102252.88;;;7.72;100.00
15308;BME280;7755;52.208;6.964;2024-01-30T01:14:51;102252.81;;;7.80;100.00
15308;BME280;7755;52.208;6.964;2024-01-30T01:18:56;102256.47;;;7.87;100.00
15308;BME280;7755;52.208;6.964;2024-01-30T01:23:05;102257.59;;;7.93;100.00
15308;BME280;7755;52.208;6.964;2024-01-30T01:27:10;102253.13;;;8.00;100.00
15308;BME280;7755;52.208;6.964;2024-01-30T01:31:14;102257.13;;;8.04;100.00
15308;BME280;7755;52.208;6.964;2024-01-30T01:35:21;102261.34;;;8.07;100.00
15308;BME280;7755;52.208;6.964;2024-01-30T01:39:29;102254.50;;;8.11;100.00
15308;BME280;7755;52.208;6.964;2024-01-30T01:43:34;102261.44;;;8.13;100.00
15308;BME280;7755;52.208;6.964;2024-01-30T01:47:40;102255.84;;;8.15;100.00
15308;BME280;7755;52.208;6.964;2024-01-30T01:51:47;102260.03;;;8.17;100.00
15308;BME280;7755;52.208;6.964;2024-01-30T01:55:55;102261.53;;;8.20;100.00
15308;BME280;7755;52.208;6.964;2024-01-30T02:00:01;102265.94;;;8.21;100.00
15308;BME280;7755;52.208;6.964;2024-01-30T02:04:09;102256.13;;;8.20;100.00
15308;BME280;7755;52.208;6.964;2024-01-30T02:08:15;102248.84;;;8.20;100.00
15308;BME280;7755;52.208;6.964;2024-01-30T02:12:22;102244.81;;;8.16;100.00
15308;BME280;7755;52.208;6.964;2024-01-30T02:16:27;102229.78;;;8.14;100.00
15308;BME280;7755;52.208;6.964;2024-01-30T02:20:34;102235.94;;;8.08;100.00
15308;BME280;7755;52.208;6.964;2024-01-30T02:24:43;102238.56;;;8.01;100.00
15308;BME280;7755;52.208;6.964;2024-01-30T02:28:48;102230.53;;;7.93;100.00
15308;BME280;7755;52.208;6.964;2024-01-30T02:32:53;102228.72;;;7.85;100.00
15308;BME280;7755;52.208;6.964;2024-01-30T02:36:58;102217.97;;;7.77;100.00
15308;BME280;7755;52.208;6.964;2024-01-30T02:41:05;102218.34;;;7.74;100.00
15308;BME280;7755;52.208;6.964;2024-01-30T02:45:12;102214.50;;;7.69;100.00
15308;BME280;7755;52.208;6.964;2024-01-30T02:49:17;102214.03;;;7.65;100.00
15308;BME280;7755;52.208;6.964;2024-01-30T02:53:22;102221.88;;;7.60;100.00
15308;BME280;7755;52.208;6.964;2024-01-30T02:57:29;102216.16;;;7.55;100.00
15308;BME280;7755;52.208;6.964;2024-01-30T03:01:42;102214.84;;;7.51;100.00
15308;BME280;7755;52.208;6.964;2024-01-30T03:05:48;102197.41;;;7.53;100.00
15308;BME280;7755;52.208;6.964;2024-01-30T03:09:53;102198.72;;;7.57;100.00
15308;BME280;7755;52.208;6.964;2024-01-30T03:14:01;102202.75;;;7.61;100.00
15308;BME280;7755;52.208;6.964;2024-01-30T03:18:06;102198.81;;;7.64;100.00
15308;BME280;7755;52.208;6.964;2024-01-30T03:22:11;102193.25;;;7.65;100.00
15308;BME280;7755;52.208;6.964;2024-01-30T03:26:16;102182.03;;;7.69;100.00
15308;BME280;7755;52.208;6.964;2024-01-30T03:30:24;102187.44;;;7.69;100.00
15308;BME280;7755;52.208;6.964;2024-01-30T03:34:31;102188.47;;;7.68;100.00
15308;BME280;7755;52.208;6.964;2024-01-30T03:38:35;102184.09;;;7.66;100.00
15308;BME280;7755;52.208;6.964;2024-01-30T03:42:40;102179.50;;;7.67;100.00
15308;BME280;7755;52.208;6.964;2024-01-30T03:46:48;102175.28;;;7.64;100.00
15308;BME280;7755;52.208;6.964;2024-01-30T03:50:53;102178.19;;;7.63;100.00
15308;BME280;7755;52.208;6.964;2024-01-30T03:54:58;102176.72;;;7.60;100.00
15308;BME280;7755;52.208;6.964;2024-01-30T03:59:03;102163.53;;;7.57;100.00
15308;BME280;7755;52.208;6.964;2024-01-30T04:03:11;102168.47;;;7.54;100.00
15308;BME280;7755;52.208;6.964;2024-01-30T04:07:16;102163.63;;;7.49;100.00
15308;BME280;7755;52.208;6.964;2024-01-30T04:11:25;102158.94;;;7.43;100.00
15308;BME280;7755;52.208;6.964;2024-01-30T04:15:29;102154.94;;;7.39;100.00
15308;BME280;7755;52.208;6.964;2024-01-30T04:19:40;102151.75;;;7.35;100.00
15308;BME280;7755;52.208;6.964;2024-01-30T04:23:45;102154.81;;;7.32;100.00
15308;BME280;7755;52.208;6.964;2024-01-30T04:27:50;102155.00;;;7.31;100.00
15308;BME280;7755;52.208;6.964;2024-01-30T04:31:55;102148.28;;;7.27;100.00
15308;BME280;7755;52.208;6.964;2024-01-30T04:36:03;102143.59;;;7.21;100.00
15308;BME280;7755;52.208;6.964;2024-01-30T04:40:09;102149.19;;;7.19;100.00
15308;BME280;7755;52.208;6.964;2024-01-30T04:44:14;102150.22;;;7.18;100.00
15308;BME280;7755;52.208;6.964;2024-01-30T04:48:18;102141.63;;;7.15;100.00
15308;BME280;7755;52.208;6.964;2024-01-30T04:52:26;102137.44;;;7.12;100.00
15308;BME280;7755;52.208;6.964;2024-01-30T04:56:31;102132.88;;;7.13;100.00
15308;BME280;7755;52.208;6.964;2024-01-30T05:00:36;102126.03;;;7.17;100.00
15308;BME280;7755;52.208;6.964;2024-01-30T05:04:41;102121.56;;;7.24;100.00
15308;BME280;7755;52.208;6.964;2024-01-30T05:08:49;102126.56;;;7.35;100.00
15308;BME280;7755;52.208;6.964;2024-01-30T05:12:53;102125.28;;;7.46;100.00
15308;BME280;7755;52.208;6.964;2024-01-30T05:16:58;102132.91;;;7.57;100.00
15308;BME280;7755;52.208;6.964;2024-01-30T05:21:07;102135.91;;;7.62;100.00
15308;BME280;7755;52.208;6.964;2024-01-30T05:25:15;102142.06;;;7.71;100.00
15308;BME280;7755;52.208;6.964;2024-01-30T05:29:20;102137.78;;;7.76;100.00
15308;BME280;7755;52.208;6.964;2024-01-30T05:33:25;102140.97;;;7.80;100.00
15308;BME280;7755;52.208;6.964;2024-01-30T05:37:30;102137.88;;;7.83;100.00
15308;BME280;7755;52.208;6.964;2024-01-30T05:41:37;102130.50;;;7.91;100.00
15308;BME280;7755;52.208;6.964;2024-01-30T05:45:42;102139.09;;;7.95;100.00
15308;BME280;7755;52.208;6.964;2024-01-30T05:49:47;102130.22;;;8.01;100.00
15308;BME280;7755;52.208;6.964;2024-01-30T05:53:52;102125.63;;;8.02;100.00
15308;BME280;7755;52.208;6.964;2024-01-30T05:58:00;102124.22;;;8.06;100.00
15308;BME280;7755;52.208;6.964;2024-01-30T06:02:05;102124.50;;;8.11;100.00
15308;BME280;7755;52.208;6.964;2024-01-30T06:06:13;102123.09;;;8.15;100.00
15308;BME280;7755;52.208;6.964;2024-01-30T06:10:21;102125.59;;;8.16;100.00
15308;BME280;7755;52.208;6.964;2024-01-30T06:14:28;102108.13;;;8.19;100.00
15308;BME280;7755;52.208;6.964;2024-01-30T06:18:34;102114.84;;;8.23;100.00
15308;BME280;7755;52.208;6.964;2024-01-30T06:22:39;102128.69;;;8.28;100.00
15308;BME280;7755;52.208;6.964;2024-01-30T06:26:44;102126.81;;;8.29;100.00
15308;BME280;7755;52.208;6.964;2024-01-30T06:30:51;102128.47;;;8.30;100.00
15308;BME280;7755;52.208;6.964;2024-01-30T06:35:01;102128.28;;;8.31;100.00
15308;BME280;7755;52.208;6.964;2024-01-30T06:39:06;102129.97;;;8.32;100.00
15308;BME280;7755;52.208;6.964;2024-01-30T06:43:11;102119.13;;;8.32;100.00
15308;BME280;7755;52.208;6.964;2024-01-30T06:47:19;102126.25;;;8.33;100.00
15308;BME280;7755;52.208;6.964;2024-01-30T06:51:24;102129.44;;;8.37;100.00
15308;BME280;7755;52.208;6.964;2024-01-30T06:55:29;102133.81;;;8.38;100.00
15308;BME280;7755;52.208;6.964;2024-01-30T06:59:34;102132.59;;;8.40;100.00
15308;BME280;7755;52.208;6.964;2024-01-30T07:03:41;102129.31;;;8.45;100.00
15308;BME280;7755;52.208;6.964;2024-01-30T07:07:46;102139.31;;;8.44;100.00
15308;BME280;7755;52.208;6.964;2024-01-30T07:11:53;102134.34;;;8.48;100.00
15308;BME280;7755;52.208;6.964;2024-01-30T07:16:00;102121.44;;;8.50;100.00
15308;BME280;7755;52.208;6.964;2024-01-30T07:20:09;102124.44;;;8.55;100.00
15308;BME280;7755;52.208;6.964;2024-01-30T07:24:18;102125.91;;;8.58;100.00
15308;BME280;7755;52.208;6.964;2024-01-30T07:28:23;102126.53;;;8.60;100.00
15308;BME280;7755;52.208;6.964;2024-01-30T07:32:28;102130.97;;;8.61;100.00
15308;BME280;7755;52.208;6.964;2024-01-30T07:36:36;102142.25;;;8.64;100.00
15308;BME280;7755;52.208;6.964;2024-01-30T07:40:41;102134.09;;;8.64;100.00
15308;BME280;7755;52.208;6.964;2024-01-30T07:44:46;102140.16;;;8.66;100.00
15308;BME280;7755;52.208;6.964;2024-01-30T07:48:51;102135.78;;;8.65;100.00
15308;BME280;7755;52.208;6.964;2024-01-30T07:52:59;102132.03;;;8.66;100.00
15308;BME280;7755;52.208;6.964;2024-01-30T07:57:05;102136.25;;;8.69;100.00
15308;BME280;7755;52.208;6.964;2024-01-30T08:01:10;102145.22;;;8.69;100.00
15308;BME280;7755;52.208;6.964;2024-01-30T08:05:16;102152.50;;;8.69;100.00
15308;BME280;7755;52.208;6.964;2024-01-30T08:09:24;102158.56;;;8.71;100.00
15308;BME280;7755;52.208;6.964;2024-01-30T08:13:28;102152.97;;;8.72;100.00
15308;BME280;7755;52.208;6.964;2024-01-30T08:17:33;102152.78;;;8.74;100.00
15308;BME280;7755;52.208;6.964;2024-01-30T08:21:38;102166.59;;;8.79;100.00
15308;BME280;7755;52.208;6.964;2024-01-30T08:25:46;102167.06;;;8.83;100.00
15308;BME280;7755;52.208;6.964;2024-01-30T08:29:51;102160.19;;;8.87;100.00
15308;BME280;7755;52.208;6.964;2024-01-30T08:33:56;102169.06;;;8.95;100.00
15308;BME280;7755;52.208;6.964;2024-01-30T08:38:01;102160.97;;;9.02;100.00
15308;BME280;7755;52.208;6.964;2024-01-30T08:42:09;102162.53;;;9.11;100.00
15308;BME280;7755;52.208;6.964;2024-01-30T08:46:17;102166.97;;;9.19;100.00
15308;BME280;7755;52.208;6.964;2024-01-30T08:50:23;102165.16;;;9.26;100.00
15308;BME280;7755;52.208;6.964;2024-01-30T08:54:28;102171.47;;;9.33;100.00
15308;BME280;7755;52.208;6.964;2024-01-30T08:58:38;102167.38;;;9.44;100.00
15308;BME280;7755;52.208;6.964;2024-01-30T09:02:43;102166.00;;;9.54;100.00
15308;BME280;7755;52.208;6.964;2024-01-30T09:06:49;102171.47;;;9.61;100.00
15308;BME280;7755;52.208;6.964;2024-01-30T09:10:54;102172.19;;;9.70;100.00
15308;BME280;7755;52.208;6.964;2024-01-30T09:15:01;102175.56;;;9.78;100.00
15308;BME280;7755;52.208;6.964;2024-01-30T09:19:06;102186.47;;;9.85;100.00
15308;BME280;7755;52.208;6.964;2024-01-30T09:23:11;102182.50;;;9.88;100.00
15308;BME280;7755;52.208;6.964;2024-01-30T09:27:16;102178.16;;;9.93;100.00
15308;BME280;7755;52.208;6.964;2024-01-30T09:31:24;102176.06;;;9.95;100.00
15308;BME280;7755;52.208;6.964;2024-01-30T09:35:29;102175.94;;;10.03;100.00
15308;BME280;7755;52.208;6.964;2024-01-30T09:39:35;102176.81;;;10.10;100.00
15308;BME280;7755;52.208;6.964;2024-01-30T09:43:40;102179.56;;;10.17;100.00
15308;BME280;7755;52.208;6.964;2024-01-30T09:47:49;102179.97;;;10.21;100.00
15308;BME280;7755;52.208;6.964;2024-01-30T09:51:54;102173.19;;;10.31;100.00
15308;BME280;7755;52.208;6.964;2024-01-30T09:56:00;102174.63;;;10.34;100.00
15308;BME280;7755;52.208;6.964;2024-01-30T10:00:07;102174.66;;;10.41;100.00
15308;BME280;7755;52.208;6.964;2024-01-30T10:04:17;102183.28;;;10.51;100.00
15308;BME280;7755;52.208;6.964;2024-01-30T10:08:22;102175.78;;;10.59;100.00
15308;BME280;7755;52.208;6.964;2024-01-30T10:12:28;102195.91;;;10.72;100.00
15308;BME280;7755;52.208;6.964;2024-01-30T10:16:34;102192.78;;;10.81;100.00
15308;BME280;7755;52.208;6.964;2024-01-30T10:20:42;102196.16;;;10.97;100.00
15308;BME280;7755;52.208;6.964;2024-01-30T10:24:48;102192.41;;;10.98;100.00
15308;BME280;7755;52.208;6.964;2024-01-30T10:28:53;102185.28;;;11.03;100.00
15308;BME280;7755;52.208;6.964;2024-01-30T10:32:58;102187.59;;;11.06;100.00
15308;BME280;7755;52.208;6.964;2024-01-30T10:37:09;102193.69;;;11.15;100.00
15308;BME280;7755;52.208;6.964;2024-01-30T10:41:20;102186.59;;;11.27;100.00
15308;BME280;7755;52.208;6.964;2024-01-30T10:45:28;102195.81;;;11.26;100.00
15308;BME280;7755;52.208;6.964;2024-01-30T10:49:35;102194.31;;;11.24;100.00
15308;BME280;7755;52.208;6.964;2024-01-30T10:53:44;102179.25;;;11.28;100.00
15308;BME280;7755;52.208;6.964;2024-01-30T10:57:50;102177.78;;;11.25;100.00
15308;BME280;7755;52.208;6.964;2024-01-30T11:01:56;102176.97;;;11.25;100.00
15308;BME280;7755;52.208;6.964;2024-01-30T11:06:02;102175.06;;;11.32;100.00
15308;BME280;7755;52.208;6.964;2024-01-30T11:10:11;102169.19;;;11.35;100.00
15308;BME280;7755;52.208;6.964;2024-01-30T11:14:23;102178.19;;;11.35;100.00
15308;BME280;7755;52.208;6.964;2024-01-30T11:18:30;102184.47;;;11.42;100.00
15308;BME280;7755;52.208;6.964;2024-01-30T11:22:35;102189.31;;;11.40;100.00
15308;BME280;7755;52.208;6.964;2024-01-30T11:26:44;102188.25;;;11.41;100.00
15308;BME280;7755;52.208;6.964;2024-01-30T11:30:49;102197.69;;;11.45;100.00
15308;BME280;7755;52.208;6.964;2024-01-30T11:34:55;102194.53;;;11.42;100.00
15308;BME280;7755;52.208;6.964;2024-01-30T11:39:01;102189.72;;;11.44;100.00
15308;BME280;7755;52.208;6.964;2024-01-30T11:43:09;102202.72;;;11.42;100.00
15308;BME280;7755;52.208;6.964;2024-01-30T11:47:15;102201.88;;;11.48;100.00
15308;BME280;7755;52.208;6.964;2024-01-30T11:51:21;102202.72;;;11.48;100.00
15308;BME280;7755;52.208;6.964;2024-01-30T11:55:26;102197.25;;;11.48;100.00
15308;BME280;7755;52.208;6.964;2024-01-30T11:59:38;102194.97;;;11.52;100.00
15308;BME280;7755;52.208;6.964;2024-01-30T12:03:43;102195.16;;;11.51;100.00
15308;BME280;7755;52.208;6.964;2024-01-30T12:07:53;102200.59;;;11.51;100.00
15308;BME280;7755;52.208;6.964;2024-01-30T12:12:02;102186.38;;;11.48;100.00
15308;BME280;7755;52.208;6.964;2024-01-30T12:16:10;102194.13;;;11.52;100.00
15308;BME280;7755;52.208;6.964;2024-01-30T12:20:18;102179.03;;;11.56;100.00
15308;BME280;7755;52.208;6.964;2024-01-30T12:24:24;102182.56;;;11.69;100.00
15308;BME280;7755;52.208;6.964;2024-01-30T12:28:29;102184.03;;;11.85;100.00
15308;BME280;7755;52.208;6.964;2024-01-30T12:32:38;102186.75;;;11.92;100.00
15308;BME280;7755;52.208;6.964;2024-01-30T12:36:44;102182.75;;;12.01;100.00
15308;BME280;7755;52.208;6.964;2024-01-30T12:40:49;102185.47;;;12.08;100.00
15308;BME280;7755;52.208;6.964;2024-01-30T12:44:54;102183.56;;;12.15;100.00
15308;BME280;7755;52.208;6.964;2024-01-30T12:49:01;102183.56;;;12.15;100.00
15308;BME280;7755;52.208;6.964;2024-01-30T12:53:06;102181.44;;;12.17;100.00
15308;BME280;7755;52.208;6.964;2024-01-30T12:57:11;102175.19;;;12.10;100.00
15308;BME280;7755;52.208;6.964;2024-01-30T13:01:16;102183.59;;;12.08;100.00
15308;BME280;7755;52.208;6.964;2024-01-30T13:05:24;102199.72;;;12.10;100.00
15308;BME280;7755;52.208;6.964;2024-01-30T13:09:29;102197.00;;;12.03;100.00
15308;BME280;7755;52.208;6.964;2024-01-30T13:13:34;102201.63;;;11.96;100.00
15308;BME280;7755;52.208;6.964;2024-01-30T13:17:39;102199.53;;;11.98;100.00
15308;BME280;7755;52.208;6.964;2024-01-30T13:21:47;102197.84;;;11.97;100.00
15308;BME280;7755;52.208;6.964;2024-01-30T13:25:52;102195.13;;;11.97;100.00
15308;BME280;7755;52.208;6.964;2024-01-30T13:30:00;102197.47;;;11.93;100.00
15308;BME280;7755;52.208;6.964;2024-01-30T13:34:05;102192.41;;;11.97;100.00
15308;BME280;7755;52.208;6.964;2024-01-30T13:38:13;102196.59;;;12.06;100.00
15308;BME280;7755;52.208;6.964;2024-01-30T13:42:19;102199.09;;;12.14;100.00
15308;BME280;7755;52.208;6.964;2024-01-30T13:46:24;102200.16;;;12.13;100.00
15308;BME280;7755;52.208;6.964;2024-01-30T13:50:29;102192.16;;;12.05;100.00
15308;BME280;7755;52.208;6.964;2024-01-30T13:54:37;102189.25;;;12.07;100.00
15308;BME280;7755;52.208;6.964;2024-01-30T13:58:43;102197.84;;;12.03;100.00
15308;BME280;7755;52.208;6.964;2024-01-30T14:02:48;102194.06;;;12.05;100.00
15308;BME280;7755;52.208;6.964;2024-01-30T14:06:52;102189.28;;;12.00;100.00
15308;BME280;7755;52.208;6.964;2024-01-30T14:11:08;102200.38;;;11.98;100.00
15308;BME280;7755;52.208;6.964;2024-01-30T14:15:13;102219.88;;;11.95;100.00
15308;BME280;7755;52.208;6.964;2024-01-30T14:19:29;102232.91;;;11.93;100.00
15308;BME280;7755;52.208;6.964;2024-01-30T14:23:34;102229.53;;;11.91;100.00
15308;BME280;7755;52.208;6.964;2024-01-30T14:27:42;102242.97;;;11.93;100.00
15308;BME280;7755;52.208;6.964;2024-01-30T14:31:47;102248.41;;;11.80;100.00
15308;BME280;7755;52.208;6.964;2024-01-30T14:35:52;102251.53;;;11.70;100.00
15308;BME280;7755;52.208;6.964;2024-01-30T14:39:57;102256.97;;;11.57;100.00
15308;BME280;7755;52.208;6.964;2024-01-30T14:44:04;102257.78;;;11.44;100.00
15308;BME280;7755;52.208;6.964;2024-01-30T14:48:10;102273.28;;;11.30;100.00
15308;BME280;7755;52.208;6.964;2024-01-30T14:52:15;102272.03;;;11.26;100.00
15308;BME280;7755;52.208;6.964;2024-01-30T14:56:19;102275.78;;;11.18;100.00
15308;BME280;7755;52.208;6.964;2024-01-30T15:00:27;102265.50;;;11.07;100.00
15308;BME280;7755;52.208;6.964;2024-01-30T15:04:33;102276.56;;;10.99;100.00
15308;BME280;7755;52.208;6.964;2024-01-30T15:08:38;102281.75;;;10.87;100.00
15308;BME280;7755;52.208;6.964;2024-01-30T15:12:43;102294.88;;;10.71;100.00
15308;BME280;7755;52.208;6.964;2024-01-30T15:16:50;102304.19;;;10.55;100.00
15308;BME280;7755;52.208;6.964;2024-01-30T15:20:56;102301.22;;;10.43;100.00
15308;BME280;7755;52.208;6.964;2024-01-30T15:25:00;102311.25;;;10.43;100.00
15308;BME280;7755;52.208;6.964;2024-01-30T15:29:05;102335.66;;;10.36;100.00
15308;BME280;7755;52.208;6.964;2024-01-30T15:33:13;102334.56;;;10.24;100.00
15308;BME280;7755;52.208;6.964;2024-01-30T15:37:18;102322.16;;;10.21;100.00
15308;BME280;7755;52.208;6.964;2024-01-30T15:41:23;102334.03;;;10.13;100.00
15308;BME280;7755;52.208;6.964;2024-01-30T15:45:28;102339.47;;;10.13;100.00
15308;BME280;7755;52.208;6.964;2024-01-30T15:49:36;102352.16;;;10.06;100.00
15308;BME280;7755;52.208;6.964;2024-01-30T15:53:42;102342.06;;;10.00;100.00
15308;BME280;7755;52.208;6.964;2024-01-30T15:57:46;102350.38;;;9.92;100.00
15308;BME280;7755;52.208;6.964;2024-01-30T16:01:51;102357.22;;;9.88;100.00
15308;BME280;7755;52.208;6.964;2024-01-30T16:05:59;102375.34;;;9.81;100.00
15308;BME280;7755;52.208;6.964;2024-01-30T16:10:05;102379.50;;;9.77;100.00
15308;BME280;7755;52.208;6.964;2024-01-30T16:14:11;102378.44;;;9.78;100.00
15308;BME280;7755;52.208;6.964;2024-01-30T16:18:16;102389.88;;;9.73;100.00
15308;BME280;7755;52.208;6.964;2024-01-30T16:22:24;102386.72;;;9.70;100.00
15308;BME280;7755;52.208;6.964;2024-01-30T16:26:29;102388.72;;;9.61;100.00
15308;BME280;7755;52.208;6.964;2024-01-30T16:30:34;102399.06;;;9.51;100.00
15308;BME280;7755;52.208;6.964;2024-01-30T16:34:38;102400.72;;;9.52;100.00
15308;BME280;7755;52.208;6.964;2024-01-30T16:38:46;102405.97;;;9.53;100.00
15308;BME280;7755;52.208;6.964;2024-01-30T16:42:51;102412.84;;;9.49;100.00
15308;BME280;7755;52.208;6.964;2024-01-30T16:46:56;102432.97;;;9.40;100.00
15308;BME280;7755;52.208;6.964;2024-01-30T16:51:01;102424.38;;;9.37;100.00
15308;BME280;7755;52.208;6.964;2024-01-30T16:55:08;102440.09;;;9.26;100.00
15308;BME280;7755;52.208;6.964;2024-01-30T16:59:15;102447.31;;;9.19;100.00
15308;BME280;7755;52.208;6.964;2024-01-30T17:03:20;102448.91;;;9.14;100.00
15308;BME280;7755;52.208;6.964;2024-01-30T17:07:25;102459.09;;;9.12;100.00
15308;BME280;7755;52.208;6.964;2024-01-30T17:11:38;102450.88;;;9.05;100.00
15308;BME280;7755;52.208;6.964;2024-01-30T17:15:43;102469.88;;;9.05;100.00
15308;BME280;7755;52.208;6.964;2024-01-30T17:19:49;102462.56;;;8.91;100.00
15308;BME280;7755;52.208;6.964;2024-01-30T17:23:55;102473.88;;;8.80;100.00
15308;BME280;7755;52.208;6.964;2024-01-30T17:28:04;102486.13;;;8.75;100.00
15308;BME280;7755;52.208;6.964;2024-01-30T17:32:09;102495.19;;;8.68;100.00
15308;BME280;7755;52.208;6.964;2024-01-30T17:36:14;102498.63;;;8.62;100.00
15308;BME280;7755;52.208;6.964;2024-01-30T17:40:18;102494.47;;;8.51;100.00
15308;BME280;7755;52.208;6.964;2024-01-30T17:44:26;102511.16;;;8.40;100.00
15308;BME280;7755;52.208;6.964;2024-01-30T17:48:31;102501.00;;;8.42;100.00
15308;BME280;7755;52.208;6.964;2024-01-30T17:52:36;102507.16;;;8.36;100.00
15308;BME280;7755;52.208;6.964;2024-01-30T17:56:41;102506.97;;;8.37;100.00
15308;BME280;7755;52.208;6.964;2024-01-30T18:00:51;102504.59;;;8.34;100.00
15308;BME280;7755;52.208;6.964;2024-01-30T18:04:56;102510.88;;;8.35;100.00
15308;BME280;7755;52.208;6.964;2024-01-30T18:09:01;102520.72;;;8.36;100.00
15308;BME280;7755;52.208;6.964;2024-01-30T18:13:06;102522.72;;;8.34;100.00
15308;BME280;7755;52.208;6.964;2024-01-30T18:17:17;102530.88;;;8.34;100.00
15308;BME280;7755;52.208;6.964;2024-01-30T18:21:22;102533.06;;;8.30;100.00
15308;BME280;7755;52.208;6.964;2024-01-30T18:25:27;102532.03;;;8.31;100.00
15308;BME280;7755;52.208;6.964;2024-01-30T18:29:32;102532.59;;;8.27;100.00
15308;BME280;7755;52.208;6.964;2024-01-30T18:33:40;102535.31;;;8.27;100.00
15308;BME280;7755;52.208;6.964;2024-01-30T18:37:47;102546.81;;;8.29;100.00
15308;BME280;7755;52.208;6.964;2024-01-30T18:41:52;102554.22;;;8.35;100.00
15308;BME280;7755;52.208;6.964;2024-01-30T18:45:57;102556.63;;;8.30;100.00
15308;BME280;7755;52.208;6.964;2024-01-30T18:50:06;102559.34;;;8.30;100.00
15308;BME280;7755;52.208;6.964;2024-01-30T18:54:11;102563.59;;;8.24;100.00
15308;BME280;7755;52.208;6.964;2024-01-30T18:58:16;102574.25;;;8.26;100.00
15308;BME280;7755;52.208;6.964;2024-01-30T19:02:21;102574.13;;;8.19;100.00
15308;BME280;7755;52.208;6.964;2024-01-30T19:06:30;102587.19;;;8.15;100.00
15308;BME280;7755;52.208;6.964;2024-01-30T19:10:35;102589.59;;;8.10;100.00
15308;BME280;7755;52.208;6.964;2024-01-30T19:14:44;102591.00;;;8.06;100.00
15308;BME280;7755;52.208;6.964;2024-01-30T19:18:49;102606.88;;;8.09;100.00
15308;BME280;7755;52.208;6.964;2024-01-30T19:22:57;102607.25;;;8.06;100.00
15308;BME280;7755;52.208;6.964;2024-01-30T19:27:03;102614.34;;;8.07;100.00
15308;BME280;7755;52.208;6.964;2024-01-30T19:31:08;102611.13;;;8.04;100.00
15308;BME280;7755;52.208;6.964;2024-01-30T19:35:16;102618.06;;;8.06;100.00
15308;BME280;7755;52.208;6.964;2024-01-30T19:39:23;102626.53;;;8.03;100.00
15308;BME280;7755;52.208;6.964;2024-01-30T19:43:29;102630.75;;;8.06;100.00
15308;BME280;7755;52.208;6.964;2024-01-30T19:47:34;102633.31;;;7.99;100.00
15308;BME280;7755;52.208;6.964;2024-01-30T19:51:39;102639.28;;;7.94;100.00
15308;BME280;7755;52.208;6.964;2024-01-30T19:55:47;102656.00;;;7.98;100.00
15308;BME280;7755;52.208;6.964;2024-01-30T19:59:53;102667.69;;;7.99;100.00
15308;BME280;7755;52.208;6.964;2024-01-30T20:03:58;102677.38;;;7.93;100.00
15308;BME280;7755;52.208;6.964;2024-01-30T20:08:04;102673.31;;;7.89;100.00
15308;BME280;7755;52.208;6.964;2024-01-30T20:12:11;102689.22;;;7.92;100.00
15308;BME280;7755;52.208;6.964;2024-01-30T20:16:16;102680.25;;;7.91;100.00
15308;BME280;7755;52.208;6.964;2024-01-30T20:20:22;102693.97;;;7.90;100.00
15308;BME280;7755;52.208;6.964;2024-01-30T20:24:27;102703.13;;;7.81;100.00
15308;BME280;7755;52.208;6.964;2024-01-30T20:28:35;102708.41;;;7.74;100.00
15308;BME280;7755;52.208;6.964;2024-01-30T20:32:40;102713.81;;;7.74;100.00
15308;BME280;7755;52.208;6.964;2024-01-30T20:36:45;102718.06;;;7.69;100.00
15308;BME280;7755;52.208;6.964;2024-01-30T20:40:50;102713.66;;;7.68;100.00
15308;BME280;7755;52.208;6.964;2024-01-30T20:44:57;102714.13;;;7.71;100.00
15308;BME280;7755;52.208;6.964;2024-01-30T20:49:02;102721.59;;;7.69;100.00
15308;BME280;7755;52.208;6.964;2024-01-30T20:53:07;102734.13;;;7.62;100.00
15308;BME280;7755;52.208;6.964;2024-01-30T20:57:13;102744.59;;;7.65;100.00
15308;BME280;7755;52.208;6.964;2024-01-30T21:01:21;102748.03;;;7.59;100.00
15308;BME280;7755;52.208;6.964;2024-01-30T21:05:26;102757.00;;;7.59;100.00
15308;BME280;7755;52.208;6.964;2024-01-30T21:09:31;102757.81;;;7.60;100.00
15308;BME280;7755;52.208;6.964;2024-01-30T21:13:36;102766.09;;;7.50;100.00
15308;BME280;7755;52.208;6.964;2024-01-30T21:17:44;102770.84;;;7.48;100.00
15308;BME280;7755;52.208;6.964;2024-01-30T21:21:49;102763.41;;;7.42;100.00
15308;BME280;7755;52.208;6.964;2024-01-30T21:25:54;102767.31;;;7.48;100.00
15308;BME280;7755;52.208;6.964;2024-01-30T21:30:00;102772.88;;;7.46;100.00
15308;BME280;7755;52.208;6.964;2024-01-30T21:34:08;102774.06;;;7.44;100.00
15308;BME280;7755;52.208;6.964;2024-01-30T21:38:13;102777.44;;;7.37;100.00